sensor_id;sensor_type;location;lat;lon;timestamp;pressure;altitude;pressure_sealevel;temperature;humidity
29941;BME280;16801;53.562;10.038;2023-08-06T00:02:43;100725.34;;;18.89;88.24
29941;BME280;16801;53.562;10.038;2023-08-06T00:06:04;100719.47;;;18.92;88.68
29941;BME280;16801;53.562;10.038;2023-08-06T00:09:25;100716.44;;;19.02;89.06
29941;BME280;16801;53.562;10.038;2023-08-06T00:12:46;100712.53;;;18.90;89.39
29941;BME280;16801;53.562;10.038;2023-08-06T00:16:10;100710.09;;;18.80;89.82
29941;BME280;16801;53.562;10.038;2023-08-06T00:19:31;100706.88;;;18.91;89.75
29941;BME280;16801;53.562;10.038;2023-08-06T00:22:52;100706.66;;;18.93;89.37
29941;BME280;16801;53.562;10.038;2023-08-06T00:26:13;100706.00;;;18.91;89.85
29941;BME280;16801;53.562;10.038;2023-08-06T00:29:34;100691.97;;;18.94;89.91
29941;BME280;16801;53.562;10.038;2023-08-06T00:32:56;100690.13;;;19.01;90.27
29941;BME280;16801;53.562;10.038;2023-08-06T00:36:16;100686.09;;;18.97;90.18
29941;BME280;16801;53.562;10.038;2023-08-06T00:39:37;100689.03;;;18.95;90.29
29941;BME280;16801;53.562;10.038;2023-08-06T00:42:58;100692.34;;;18.91;90.48
29941;BME280;16801;53.562;10.038;2023-08-06T00:46:20;100685.22;;;18.90;90.82
29941;BME280;16801;53.562;10.038;2023-08-06T00:49:42;100684.22;;;18.97;90.92
29941;BME280;16801;53.562;10.038;2023-08-06T00:53:04;100675.19;;;18.97;90.79
29941;BME280;16801;53.562;10.038;2023-08-06T00:56:25;100669.91;;;18.95;90.77
29941;BME280;16801;53.562;10.038;2023-08-06T00:59:46;100670.19;;;18.79;91.24
29941;BME280;16801;53.562;10.038;2023-08-06T01:03:08;100655.81;;;18.92;91.35
29941;BME280;16801;53.562;10.038;2023-08-06T01:06:49;100646.75;;;18.91;91.42
29941;BME280;16801;53.562;10.038;2023-08-06T01:10:22;100656.38;;;18.87;91.51
29941;BME280;16801;53.562;10.038;2023-08-06T01:13:46;100663.88;;;18.79;91.65
29941;BME280;16801;53.562;10.038;2023-08-06T01:17:09;100652.50;;;18.75;92.20
29941;BME280;16801;53.562;10.038;2023-08-06T01:20:32;100646.19;;;18.75;92.31
29941;BME280;16801;53.562;10.038;2023-08-06T01:23:53;100636.28;;;18.74;92.43
29941;BME280;16801;53.562;10.038;2023-08-06T01:27:19;100631.00;;;18.72;92.70
29941;BME280;16801;53.562;10.038;2023-08-06T01:30:41;100631.66;;;18.74;92.68
29941;BME280;16801;53.562;10.038;2023-08-06T01:34:06;100630.75;;;18.67;92.41
29941;BME280;16801;53.562;10.038;2023-08-06T01:37:29;100623.97;;;18.63;93.28
29941;BME280;16801;53.562;10.038;2023-08-06T01:40:50;100633.81;;;18.43;93.06
29941;BME280;16801;53.562;10.038;2023-08-06T01:44:11;100628.34;;;18.58;93.03
29941;BME280;16801;53.562;10.038;2023-08-06T01:47:32;100616.63;;;18.64;93.04
29941;BME280;16801;53.562;10.038;2023-08-06T01:50:54;100614.19;;;18.69;93.35
29941;BME280;16801;53.562;10.038;2023-08-06T01:54:16;100607.16;;;18.60;93.46
29941;BME280;16801;53.562;10.038;2023-08-06T01:57:40;100603.75;;;18.58;93.82
29941;BME280;16801;53.562;10.038;2023-08-06T02:01:04;100597.94;;;18.61;94.09
29941;BME280;16801;53.562;10.038;2023-08-06T02:04:25;100603.63;;;18.66;94.14
29941;BME280;16801;53.562;10.038;2023-08-06T02:07:46;100592.72;;;18.66;94.60
29941;BME280;16801;53.562;10.038;2023-08-06T02:11:08;100590.84;;;18.66;94.65
29941;BME280;16801;53.562;10.038;2023-08-06T02:14:29;100599.03;;;18.66;94.66
29941;BME280;16801;53.562;10.038;2023-08-06T02:17:53;100590.03;;;18.72;94.48
29941;BME280;16801;53.562;10.038;2023-08-06T02:21:13;100595.50;;;18.72;94.49
29941;BME280;16801;53.562;10.038;2023-08-06T02:24:34;100588.25;;;18.58;94.99
29941;BME280;16801;53.562;10.038;2023-08-06T02:27:57;100589.06;;;18.59;95.43
29941;BME280;16801;53.562;10.038;2023-08-06T02:31:18;100590.56;;;18.61;95.28
29941;BME280;16801;53.562;10.038;2023-08-06T02:34:39;100581.13;;;18.64;94.46
29941;BME280;16801;53.562;10.038;2023-08-06T02:38:00;100575.22;;;18.60;94.34
29941;BME280;16801;53.562;10.038;2023-08-06T02:41:21;100567.41;;;18.57;94.20
29941;BME280;16801;53.562;10.038;2023-08-06T02:44:43;100559.22;;;18.57;94.16
29941;BME280;16801;53.562;10.038;2023-08-06T02:48:04;100554.88;;;18.63;93.81
29941;BME280;16801;53.562;10.038;2023-08-06T02:51:25;100562.22;;;18.62;93.79
29941;BME280;16801;53.562;10.038;2023-08-06T02:54:46;100555.19;;;18.53;93.81
29941;BME280;16801;53.562;10.038;2023-08-06T02:58:09;100559.34;;;18.49;93.77
29941;BME280;16801;53.562;10.038;2023-08-06T03:01:35;100545.16;;;18.39;93.81
29941;BME280;16801;53.562;10.038;2023-08-06T03:05:04;100543.66;;;18.36;94.04
29941;BME280;16801;53.562;10.038;2023-08-06T03:08:29;100540.94;;;18.36;93.84
29941;BME280;16801;53.562;10.038;2023-08-06T03:11:49;100536.78;;;18.41;93.88
29941;BME280;16801;53.562;10.038;2023-08-06T03:15:14;100550.06;;;18.44;93.72
29941;BME280;16801;53.562;10.038;2023-08-06T03:18:38;100552.50;;;18.38;94.07
29941;BME280;16801;53.562;10.038;2023-08-06T03:22:04;100548.84;;;18.31;94.10
29941;BME280;16801;53.562;10.038;2023-08-06T03:25:30;100551.13;;;18.28;94.32
29941;BME280;16801;53.562;10.038;2023-08-06T03:28:51;100545.59;;;18.21;94.08
29941;BME280;16801;53.562;10.038;2023-08-06T03:32:12;100537.28;;;18.29;94.07
29941;BME280;16801;53.562;10.038;2023-08-06T03:35:36;100532.81;;;18.22;93.94
29941;BME280;16801;53.562;10.038;2023-08-06T03:38:58;100528.41;;;18.21;94.25
29941;BME280;16801;53.562;10.038;2023-08-06T03:42:19;100526.69;;;18.20;94.31
29941;BME280;16801;53.562;10.038;2023-08-06T03:45:41;100529.63;;;18.18;94.61
29941;BME280;16801;53.562;10.038;2023-08-06T03:49:04;100515.78;;;18.20;94.43
29941;BME280;16801;53.562;10.038;2023-08-06T03:52:26;100517.41;;;18.14;94.20
29941;BME280;16801;53.562;10.038;2023-08-06T03:55:47;100519.22;;;18.07;93.73
29941;BME280;16801;53.562;10.038;2023-08-06T03:59:07;100512.38;;;17.97;93.66
29941;BME280;16801;53.562;10.038;2023-08-06T04:02:28;100516.03;;;18.04;93.76
29941;BME280;16801;53.562;10.038;2023-08-06T04:05:49;100515.38;;;18.02;93.08
29941;BME280;16801;53.562;10.038;2023-08-06T04:09:11;100507.97;;;17.96;93.25
29941;BME280;16801;53.562;10.038;2023-08-06T04:12:33;100508.03;;;18.02;93.03
29941;BME280;16801;53.562;10.038;2023-08-06T04:16:00;100512.56;;;17.95;92.71
29941;BME280;16801;53.562;10.038;2023-08-06T04:19:21;100516.94;;;17.90;92.74
29941;BME280;16801;53.562;10.038;2023-08-06T04:22:42;100515.94;;;17.97;92.73
29941;BME280;16801;53.562;10.038;2023-08-06T04:26:04;100520.75;;;17.95;92.33
29941;BME280;16801;53.562;10.038;2023-08-06T04:29:27;100526.00;;;17.97;92.29
29941;BME280;16801;53.562;10.038;2023-08-06T04:32:49;100522.72;;;18.01;92.09
29941;BME280;16801;53.562;10.038;2023-08-06T04:36:11;100525.63;;;18.00;91.96
29941;BME280;16801;53.562;10.038;2023-08-06T04:39:32;100529.31;;;17.92;91.84
29941;BME280;16801;53.562;10.038;2023-08-06T04:42:54;100525.13;;;17.90;91.68
29941;BME280;16801;53.562;10.038;2023-08-06T04:46:16;100526.13;;;17.89;91.71
29941;BME280;16801;53.562;10.038;2023-08-06T04:49:36;100525.56;;;17.93;91.82
29941;BME280;16801;53.562;10.038;2023-08-06T04:52:57;100524.81;;;17.85;92.08
29941;BME280;16801;53.562;10.038;2023-08-06T04:56:18;100522.94;;;17.85;92.34
29941;BME280;16801;53.562;10.038;2023-08-06T04:59:40;100521.66;;;17.81;92.92
29941;BME280;16801;53.562;10.038;2023-08-06T05:03:02;100519.56;;;17.83;92.96
29941;BME280;16801;53.562;10.038;2023-08-06T05:06:23;100515.59;;;17.86;93.28
29941;BME280;16801;53.562;10.038;2023-08-06T05:09:44;100516.66;;;17.85;93.42
29941;BME280;16801;53.562;10.038;2023-08-06T05:13:05;100522.84;;;17.93;93.22
29941;BME280;16801;53.562;10.038;2023-08-06T05:16:28;100517.88;;;17.82;93.56
29941;BME280;16801;53.562;10.038;2023-08-06T05:19:49;100516.84;;;17.83;93.64
29941;BME280;16801;53.562;10.038;2023-08-06T05:23:10;100509.31;;;17.85;94.12
29941;BME280;16801;53.562;10.038;2023-08-06T05:26:32;100523.94;;;17.99;94.19
29941;BME280;16801;53.562;10.038;2023-08-06T05:29:55;100519.25;;;17.93;94.02
29941;BME280;16801;53.562;10.038;2023-08-06T05:33:17;100522.84;;;17.93;94.17
29941;BME280;16801;53.562;10.038;2023-08-06T05:36:41;100516.09;;;18.10;94.07
29941;BME280;16801;53.562;10.038;2023-08-06T05:40:02;100512.59;;;18.16;94.35
29941;BME280;16801;53.562;10.038;2023-08-06T05:43:23;100516.09;;;18.10;94.01
29941;BME280;16801;53.562;10.038;2023-08-06T05:46:44;100515.25;;;18.10;94.09
29941;BME280;16801;53.562;10.038;2023-08-06T05:50:08;100513.75;;;18.07;93.86
29941;BME280;16801;53.562;10.038;2023-08-06T05:53:29;100503.94;;;17.92;93.60
29941;BME280;16801;53.562;10.038;2023-08-06T05:56:50;100503.53;;;17.95;93.76
29941;BME280;16801;53.562;10.038;2023-08-06T06:00:11;100497.22;;;17.94;93.77
29941;BME280;16801;53.562;10.038;2023-08-06T06:03:32;100496.84;;;17.97;94.33
29941;BME280;16801;53.562;10.038;2023-08-06T06:06:54;100498.09;;;17.95;94.38
29941;BME280;16801;53.562;10.038;2023-08-06T06:10:15;100499.59;;;17.97;94.49
29941;BME280;16801;53.562;10.038;2023-08-06T06:13:36;100505.25;;;17.96;94.50
29941;BME280;16801;53.562;10.038;2023-08-06T06:16:57;100501.16;;;18.06;94.75
29941;BME280;16801;53.562;10.038;2023-08-06T06:20:17;100500.78;;;18.30;94.48
29941;BME280;16801;53.562;10.038;2023-08-06T06:23:39;100495.75;;;18.34;94.03
29941;BME280;16801;53.562;10.038;2023-08-06T06:27:00;100501.22;;;18.34;93.71
29941;BME280;16801;53.562;10.038;2023-08-06T06:30:21;100498.84;;;18.46;93.58
29941;BME280;16801;53.562;10.038;2023-08-06T06:33:42;100500.22;;;18.56;93.31
29941;BME280;16801;53.562;10.038;2023-08-06T06:37:03;100491.88;;;18.64;92.28
29941;BME280;16801;53.562;10.038;2023-08-06T06:40:28;100495.53;;;18.78;91.47
29941;BME280;16801;53.562;10.038;2023-08-06T06:43:49;100479.69;;;18.94;91.26
29941;BME280;16801;53.562;10.038;2023-08-06T06:47:10;100483.91;;;18.97;90.88
29941;BME280;16801;53.562;10.038;2023-08-06T06:50:31;100484.78;;;18.97;90.14
29941;BME280;16801;53.562;10.038;2023-08-06T06:53:52;100485.19;;;19.01;89.82
29941;BME280;16801;53.562;10.038;2023-08-06T06:57:13;100477.91;;;19.08;90.15
29941;BME280;16801;53.562;10.038;2023-08-06T07:00:35;100485.50;;;19.12;89.72
29941;BME280;16801;53.562;10.038;2023-08-06T07:03:56;100485.56;;;19.26;89.25
29941;BME280;16801;53.562;10.038;2023-08-06T07:07:17;100485.97;;;19.23;88.58
29941;BME280;16801;53.562;10.038;2023-08-06T07:10:40;100486.13;;;19.49;88.63
29941;BME280;16801;53.562;10.038;2023-08-06T07:14:02;100491.44;;;19.57;87.78
29941;BME280;16801;53.562;10.038;2023-08-06T07:17:23;100484.34;;;19.69;87.52
29941;BME280;16801;53.562;10.038;2023-08-06T07:20:48;100490.88;;;19.74;87.14
29941;BME280;16801;53.562;10.038;2023-08-06T07:24:09;100489.00;;;19.75;87.07
29941;BME280;16801;53.562;10.038;2023-08-06T07:27:30;100489.03;;;19.94;86.77
29941;BME280;16801;53.562;10.038;2023-08-06T07:30:52;100483.59;;;20.01;86.09
29941;BME280;16801;53.562;10.038;2023-08-06T07:34:13;100488.25;;;20.14;85.18
29941;BME280;16801;53.562;10.038;2023-08-06T07:37:33;100492.44;;;20.03;85.41
29941;BME280;16801;53.562;10.038;2023-08-06T07:40:54;100491.81;;;20.01;85.49
29941;BME280;16801;53.562;10.038;2023-08-06T07:44:15;100500.88;;;20.08;85.54
29941;BME280;16801;53.562;10.038;2023-08-06T07:47:38;100502.13;;;20.06;85.39
29941;BME280;16801;53.562;10.038;2023-08-06T07:50:59;100498.53;;;20.05;85.35
29941;BME280;16801;53.562;10.038;2023-08-06T07:54:20;100498.53;;;20.05;85.13
29941;BME280;16801;53.562;10.038;2023-08-06T07:57:42;100496.25;;;20.09;85.19
29941;BME280;16801;53.562;10.038;2023-08-06T08:01:02;100493.94;;;20.06;85.54
29941;BME280;16801;53.562;10.038;2023-08-06T08:04:24;100495.19;;;20.03;85.71
29941;BME280;16801;53.562;10.038;2023-08-06T08:07:45;100493.09;;;20.12;86.05
29941;BME280;16801;53.562;10.038;2023-08-06T08:11:06;100482.16;;;20.12;86.15
29941;BME280;16801;53.562;10.038;2023-08-06T08:14:27;100489.09;;;20.14;85.93
29941;BME280;16801;53.562;10.038;2023-08-06T08:17:48;100480.72;;;20.22;86.10
29941;BME280;16801;53.562;10.038;2023-08-06T08:21:10;100483.25;;;20.30;85.47
29941;BME280;16801;53.562;10.038;2023-08-06T08:24:31;100476.31;;;20.41;84.46
29941;BME280;16801;53.562;10.038;2023-08-06T08:27:52;100481.59;;;20.49;83.85
29941;BME280;16801;53.562;10.038;2023-08-06T08:31:13;100485.41;;;20.48;82.78
29941;BME280;16801;53.562;10.038;2023-08-06T08:34:35;100478.63;;;20.57;82.28
29941;BME280;16801;53.562;10.038;2023-08-06T08:37:57;100478.84;;;20.55;82.06
29941;BME280;16801;53.562;10.038;2023-08-06T08:41:18;100474.22;;;20.62;82.60
29941;BME280;16801;53.562;10.038;2023-08-06T08:44:39;100477.19;;;20.48;83.18
29941;BME280;16801;53.562;10.038;2023-08-06T08:48:02;100477.59;;;20.45;83.71
29941;BME280;16801;53.562;10.038;2023-08-06T08:51:23;100473.16;;;20.57;83.28
29941;BME280;16801;53.562;10.038;2023-08-06T08:54:45;100472.75;;;20.47;82.51
29941;BME280;16801;53.562;10.038;2023-08-06T08:58:11;100476.13;;;20.49;82.31
29941;BME280;16801;53.562;10.038;2023-08-06T09:01:32;100468.09;;;20.41;82.31
29941;BME280;16801;53.562;10.038;2023-08-06T09:04:55;100471.91;;;20.40;82.29
29941;BME280;16801;53.562;10.038;2023-08-06T09:08:18;100463.06;;;20.31;82.81
29941;BME280;16801;53.562;10.038;2023-08-06T09:11:44;100460.72;;;20.28;83.56
29941;BME280;16801;53.562;10.038;2023-08-06T09:15:05;100476.75;;;20.31;83.69
29941;BME280;16801;53.562;10.038;2023-08-06T09:18:27;100466.63;;;20.25;83.46
29941;BME280;16801;53.562;10.038;2023-08-06T09:21:51;100471.22;;;20.18;83.59
29941;BME280;16801;53.562;10.038;2023-08-06T09:25:11;100476.03;;;20.10;83.66
29941;BME280;16801;53.562;10.038;2023-08-06T09:28:40;100483.63;;;20.14;83.70
29941;BME280;16801;53.562;10.038;2023-08-06T09:32:03;100476.50;;;20.20;83.23
29941;BME280;16801;53.562;10.038;2023-08-06T09:35:24;100475.47;;;20.21;83.44
29941;BME280;16801;53.562;10.038;2023-08-06T09:38:45;100475.88;;;20.24;83.69
29941;BME280;16801;53.562;10.038;2023-08-06T09:42:06;100486.59;;;20.13;83.97
29941;BME280;16801;53.562;10.038;2023-08-06T09:45:31;100480.72;;;20.22;84.61
29941;BME280;16801;53.562;10.038;2023-08-06T09:48:52;100476.13;;;20.29;84.21
29941;BME280;16801;53.562;10.038;2023-08-06T09:52:13;100474.44;;;20.41;83.51
29941;BME280;16801;53.562;10.038;2023-08-06T09:55:37;100471.06;;;20.46;83.65
29941;BME280;16801;53.562;10.038;2023-08-06T09:58:58;100481.19;;;20.52;83.30
29941;BME280;16801;53.562;10.038;2023-08-06T10:02:25;100474.03;;;20.38;83.40
29941;BME280;16801;53.562;10.038;2023-08-06T10:05:47;100480.94;;;20.40;83.82
29941;BME280;16801;53.562;10.038;2023-08-06T10:09:08;100477.16;;;20.28;83.64
29941;BME280;16801;53.562;10.038;2023-08-06T10:12:32;100469.81;;;20.35;83.92
29941;BME280;16801;53.562;10.038;2023-08-06T10:15:53;100469.59;;;20.56;83.59
29941;BME280;16801;53.562;10.038;2023-08-06T10:19:16;100473.16;;;20.57;82.84
29941;BME280;16801;53.562;10.038;2023-08-06T10:22:42;100473.59;;;20.47;83.00
29941;BME280;16801;53.562;10.038;2023-08-06T10:26:04;100474.41;;;20.35;83.60
29941;BME280;16801;53.562;10.038;2023-08-06T10:29:35;100463.69;;;20.27;84.23
29941;BME280;16801;53.562;10.038;2023-08-06T10:32:58;100468.72;;;20.30;84.18
29941;BME280;16801;53.562;10.038;2023-08-06T10:36:22;100460.88;;;20.07;85.36
29941;BME280;16801;53.562;10.038;2023-08-06T10:39:48;100460.66;;;19.96;86.20
29941;BME280;16801;53.562;10.038;2023-08-06T10:43:25;100455.16;;;19.96;86.89
29941;BME280;16801;53.562;10.038;2023-08-06T10:46:46;100460.00;;;19.87;87.02
29941;BME280;16801;53.562;10.038;2023-08-06T10:50:12;100452.03;;;20.12;86.94
29941;BME280;16801;53.562;10.038;2023-08-06T10:53:34;100450.34;;;20.17;86.69
29941;BME280;16801;53.562;10.038;2023-08-06T10:56:55;100445.94;;;20.10;86.62
29941;BME280;16801;53.562;10.038;2023-08-06T11:00:16;100444.63;;;19.92;86.45
29941;BME280;16801;53.562;10.038;2023-08-06T11:03:38;100434.72;;;19.85;86.88
29941;BME280;16801;53.562;10.038;2023-08-06T11:06:59;100438.72;;;19.89;87.51
29941;BME280;16801;53.562;10.038;2023-08-06T11:10:22;100434.13;;;20.03;87.89
29941;BME280;16801;53.562;10.038;2023-08-06T11:13:44;100429.78;;;20.21;87.30
29941;BME280;16801;53.562;10.038;2023-08-06T11:17:05;100427.41;;;20.18;86.68
29941;BME280;16801;53.562;10.038;2023-08-06T11:20:27;100423.44;;;20.40;86.23
29941;BME280;16801;53.562;10.038;2023-08-06T11:23:48;100413.56;;;20.52;85.83
29941;BME280;16801;53.562;10.038;2023-08-06T11:27:13;100412.25;;;20.61;85.11
29941;BME280;16801;53.562;10.038;2023-08-06T11:30:37;100429.56;;;20.36;85.56
29941;BME280;16801;53.562;10.038;2023-08-06T11:34:08;100418.19;;;20.45;85.91
29941;BME280;16801;53.562;10.038;2023-08-06T11:37:29;100416.47;;;20.18;85.36
29941;BME280;16801;53.562;10.038;2023-08-06T11:40:50;100425.06;;;20.15;85.46
29941;BME280;16801;53.562;10.038;2023-08-06T11:44:18;100427.84;;;20.09;86.05
29941;BME280;16801;53.562;10.038;2023-08-06T11:47:39;100432.03;;;20.11;86.24
29941;BME280;16801;53.562;10.038;2023-08-06T11:51:00;100426.97;;;20.02;86.20
29941;BME280;16801;53.562;10.038;2023-08-06T11:54:30;100425.47;;;19.99;86.50
29941;BME280;16801;53.562;10.038;2023-08-06T11:57:53;100425.91;;;19.96;86.48
29941;BME280;16801;53.562;10.038;2023-08-06T12:01:16;100429.47;;;19.97;86.56
29941;BME280;16801;53.562;10.038;2023-08-06T12:05:00;100429.06;;;19.93;86.95
29941;BME280;16801;53.562;10.038;2023-08-06T12:08:20;100415.97;;;19.82;87.26
29941;BME280;16801;53.562;10.038;2023-08-06T12:11:46;100418.09;;;19.86;87.29
29941;BME280;16801;53.562;10.038;2023-08-06T12:15:11;100416.44;;;20.05;87.62
29941;BME280;16801;53.562;10.038;2023-08-06T12:18:33;100411.25;;;20.23;87.57
29941;BME280;16801;53.562;10.038;2023-08-06T12:21:55;100407.44;;;20.24;87.19
29941;BME280;16801;53.562;10.038;2023-08-06T12:25:34;100407.84;;;20.41;86.57
29941;BME280;16801;53.562;10.038;2023-08-06T12:28:55;100398.38;;;20.37;86.44
29941;BME280;16801;53.562;10.038;2023-08-06T12:32:16;100396.72;;;20.29;86.35
29941;BME280;16801;53.562;10.038;2023-08-06T12:35:39;100399.19;;;20.11;86.64
29941;BME280;16801;53.562;10.038;2023-08-06T12:39:00;100402.59;;;20.39;86.71
29941;BME280;16801;53.562;10.038;2023-08-06T12:42:42;100399.00;;;20.52;85.36
29941;BME280;16801;53.562;10.038;2023-08-06T12:46:03;100392.69;;;20.64;84.73
29941;BME280;16801;53.562;10.038;2023-08-06T12:49:24;100390.31;;;20.88;83.72
29941;BME280;16801;53.562;10.038;2023-08-06T12:52:47;100387.97;;;21.11;82.67
29941;BME280;16801;53.562;10.038;2023-08-06T12:56:08;100387.25;;;21.22;82.15
29941;BME280;16801;53.562;10.038;2023-08-06T12:59:29;100389.91;;;21.48;81.17
29941;BME280;16801;53.562;10.038;2023-08-06T13:02:50;100384.72;;;21.71;79.94
29941;BME280;16801;53.562;10.038;2023-08-06T13:06:10;100382.31;;;21.88;79.01
29941;BME280;16801;53.562;10.038;2023-08-06T13:09:32;100381.78;;;22.28;77.35
29941;BME280;16801;53.562;10.038;2023-08-06T13:12:53;100375.56;;;22.40;76.86
29941;BME280;16801;53.562;10.038;2023-08-06T13:16:14;100383.97;;;22.69;75.71
29941;BME280;16801;53.562;10.038;2023-08-06T13:19:35;100380.03;;;22.83;75.42
29941;BME280;16801;53.562;10.038;2023-08-06T13:22:57;100380.25;;;23.00;76.04
29941;BME280;16801;53.562;10.038;2023-08-06T13:26:22;100375.59;;;22.58;75.57
29941;BME280;16801;53.562;10.038;2023-08-06T13:29:42;100372.81;;;22.40;76.54
29941;BME280;16801;53.562;10.038;2023-08-06T13:33:03;100372.31;;;22.92;75.72
29941;BME280;16801;53.562;10.038;2023-08-06T13:36:26;100379.03;;;22.28;75.85
29941;BME280;16801;53.562;10.038;2023-08-06T13:39:47;100383.63;;;22.59;75.31
29941;BME280;16801;53.562;10.038;2023-08-06T13:43:09;100374.94;;;22.38;76.11
29941;BME280;16801;53.562;10.038;2023-08-06T13:46:30;100372.91;;;22.26;76.27
29941;BME280;16801;53.562;10.038;2023-08-06T13:49:51;100365.00;;;21.87;76.97
29941;BME280;16801;53.562;10.038;2023-08-06T13:53:12;100371.13;;;22.14;77.83
29941;BME280;16801;53.562;10.038;2023-08-06T13:56:34;100372.63;;;22.10;77.81
29941;BME280;16801;53.562;10.038;2023-08-06T13:59:58;100371.78;;;22.09;77.95
29941;BME280;16801;53.562;10.038;2023-08-06T14:03:18;100369.78;;;22.23;77.12
29941;BME280;16801;53.562;10.038;2023-08-06T14:06:39;100373.06;;;22.56;76.65
29941;BME280;16801;53.562;10.038;2023-08-06T14:10:00;100369.00;;;22.65;75.73
29941;BME280;16801;53.562;10.038;2023-08-06T14:13:21;100378.19;;;22.28;75.15
29941;BME280;16801;53.562;10.038;2023-08-06T14:16:44;100369.50;;;22.06;75.23
29941;BME280;16801;53.562;10.038;2023-08-06T14:20:06;100373.47;;;22.10;75.12
29941;BME280;16801;53.562;10.038;2023-08-06T14:23:31;100375.38;;;22.35;75.41
29941;BME280;16801;53.562;10.038;2023-08-06T14:26:51;100367.03;;;22.72;74.69
29941;BME280;16801;53.562;10.038;2023-08-06T14:30:12;100369.00;;;22.65;73.67
29941;BME280;16801;53.562;10.038;2023-08-06T14:33:34;100374.59;;;22.52;73.78
29941;BME280;16801;53.562;10.038;2023-08-06T14:36:55;100379.44;;;22.57;74.37
29941;BME280;16801;53.562;10.038;2023-08-06T14:40:16;100375.94;;;22.68;73.86
29941;BME280;16801;53.562;10.038;2023-08-06T14:43:37;100372.69;;;22.95;72.53
29941;BME280;16801;53.562;10.038;2023-08-06T14:46:58;100368.41;;;23.18;71.06
29941;BME280;16801;53.562;10.038;2023-08-06T14:50:20;100379.97;;;23.44;71.53
29941;BME280;16801;53.562;10.038;2023-08-06T14:53:41;100381.13;;;23.66;70.67
29941;BME280;16801;53.562;10.038;2023-08-06T14:57:02;100379.78;;;23.03;71.19
29941;BME280;16801;53.562;10.038;2023-08-06T15:00:23;100387.66;;;22.99;71.60
29941;BME280;16801;53.562;10.038;2023-08-06T15:03:44;100384.06;;;22.56;72.11
29941;BME280;16801;53.562;10.038;2023-08-06T15:07:06;100390.88;;;22.29;71.71
29941;BME280;16801;53.562;10.038;2023-08-06T15:10:29;100394.88;;;22.02;71.62
29941;BME280;16801;53.562;10.038;2023-08-06T15:13:50;100390.50;;;21.94;72.03
29941;BME280;16801;53.562;10.038;2023-08-06T15:17:10;100401.53;;;21.81;71.66
29941;BME280;16801;53.562;10.038;2023-08-06T15:20:31;100396.34;;;21.67;72.10
29941;BME280;16801;53.562;10.038;2023-08-06T15:23:53;100401.94;;;21.40;72.51
29941;BME280;16801;53.562;10.038;2023-08-06T15:27:14;100398.59;;;21.76;73.23
29941;BME280;16801;53.562;10.038;2023-08-06T15:30:36;100391.88;;;21.72;73.10
29941;BME280;16801;53.562;10.038;2023-08-06T15:33:59;100396.81;;;21.57;73.73
29941;BME280;16801;53.562;10.038;2023-08-06T15:37:21;100397.41;;;21.59;73.57
29941;BME280;16801;53.562;10.038;2023-08-06T15:40:51;100403.06;;;21.33;73.97
29941;BME280;16801;53.562;10.038;2023-08-06T15:44:13;100391.81;;;21.41;74.49
29941;BME280;16801;53.562;10.038;2023-08-06T15:47:49;100394.69;;;21.15;74.79
29941;BME280;16801;53.562;10.038;2023-08-06T15:51:24;100389.97;;;21.28;75.44
29941;BME280;16801;53.562;10.038;2023-08-06T15:54:45;100392.69;;;21.35;74.88
29941;BME280;16801;53.562;10.038;2023-08-06T15:58:07;100389.19;;;21.21;74.94
29941;BME280;16801;53.562;10.038;2023-08-06T16:01:27;100393.59;;;21.22;74.70
29941;BME280;16801;53.562;10.038;2023-08-06T16:04:48;100393.25;;;21.06;75.07
29941;BME280;16801;53.562;10.038;2023-08-06T16:08:09;100398.59;;;21.32;75.62
29941;BME280;16801;53.562;10.038;2023-08-06T16:11:30;100397.91;;;20.92;76.50
29941;BME280;16801;53.562;10.038;2023-08-06T16:14:52;100395.34;;;20.91;76.76
29941;BME280;16801;53.562;10.038;2023-08-06T16:18:13;100396.66;;;20.75;78.10
29941;BME280;16801;53.562;10.038;2023-08-06T16:21:35;100398.16;;;20.78;77.69
29941;BME280;16801;53.562;10.038;2023-08-06T16:24:55;100407.31;;;21.16;77.56
29941;BME280;16801;53.562;10.038;2023-08-06T16:28:16;100405.50;;;20.90;77.24
29941;BME280;16801;53.562;10.038;2023-08-06T16:31:38;100403.63;;;20.78;77.72
29941;BME280;16801;53.562;10.038;2023-08-06T16:34:59;100401.66;;;21.11;77.85
29941;BME280;16801;53.562;10.038;2023-08-06T16:38:21;100398.94;;;20.85;77.47
29941;BME280;16801;53.562;10.038;2023-08-06T16:41:41;100404.66;;;20.83;77.50
29941;BME280;16801;53.562;10.038;2023-08-06T16:45:03;100396.66;;;20.75;77.13
29941;BME280;16801;53.562;10.038;2023-08-06T16:48:26;100398.38;;;20.56;77.03
29941;BME280;16801;53.562;10.038;2023-08-06T16:51:47;100397.94;;;20.59;76.96
29941;BME280;16801;53.562;10.038;2023-08-06T16:55:08;100393.94;;;20.62;76.85
29941;BME280;16801;53.562;10.038;2023-08-06T16:58:30;100393.94;;;20.49;76.76
29941;BME280;16801;53.562;10.038;2023-08-06T17:01:53;100398.56;;;20.55;77.06
29941;BME280;16801;53.562;10.038;2023-08-06T17:05:19;100400.69;;;20.53;77.27
29941;BME280;16801;53.562;10.038;2023-08-06T17:08:40;100389.94;;;20.45;77.25
29941;BME280;16801;53.562;10.038;2023-08-06T17:12:01;100389.94;;;20.32;76.98
29941;BME280;16801;53.562;10.038;2023-08-06T17:15:22;100397.97;;;20.27;77.60
29941;BME280;16801;53.562;10.038;2023-08-06T17:18:43;100403.19;;;20.15;77.87
29941;BME280;16801;53.562;10.038;2023-08-06T17:22:05;100395.59;;;20.04;77.83
29941;BME280;16801;53.562;10.038;2023-08-06T17:25:26;100403.19;;;20.02;78.26